sensor_id;sensor_type;location;lat;lon;timestamp;temperature;humidity
19945;DHT22;10134;50.952;6.930;2023-06-10T00:02:10;23.10;83.00
19945;DHT22;10134;50.952;6.930;2023-06-10T00:04:38;23.00;83.30
19945;DHT22;10134;50.952;6.930;2023-06-10T00:07:06;23.00;83.60
19945;DHT22;10134;50.952;6.930;2023-06-10T00:09:36;23.00;83.70
19945;DHT22;10134;50.952;6.930;2023-06-10T00:12:06;22.90;84.50
19945;DHT22;10134;50.952;6.930;2023-06-10T00:14:40;22.90;84.00
19945;DHT22;10134;50.952;6.930;2023-06-10T00:17:10;22.90;84.00
19945;DHT22;10134;50.952;6.930;2023-06-10T00:19:37;22.90;84.20
19945;DHT22;10134;50.952;6.930;2023-06-10T00:22:08;22.90;84.20
19945;DHT22;10134;50.952;6.930;2023-06-10T00:24:38;22.90;84.30
19945;DHT22;10134;50.952;6.930;2023-06-10T00:27:06;22.90;84.50
19945;DHT22;10134;50.952;6.930;2023-06-10T00:29:34;22.90;84.40
19945;DHT22;10134;50.952;6.930;2023-06-10T00:32:02;22.90;84.60
19945;DHT22;10134;50.952;6.930;2023-06-10T00:34:30;22.90;84.60
19945;DHT22;10134;50.952;6.930;2023-06-10T00:36:58;22.90;84.40
19945;DHT22;10134;50.952;6.930;2023-06-10T00:39:25;22.90;84.50
19945;DHT22;10134;50.952;6.930;2023-06-10T00:41:52;22.80;84.70
19945;DHT22;10134;50.952;6.930;2023-06-10T00:44:20;22.80;84.80
19945;DHT22;10134;50.952;6.930;2023-06-10T00:46:47;22.80;84.80
19945;DHT22;10134;50.952;6.930;2023-06-10T00:49:16;22.80;84.80
19945;DHT22;10134;50.952;6.930;2023-06-10T00:51:43;22.70;84.90
19945;DHT22;10134;50.952;6.930;2023-06-10T00:54:11;22.60;85.10
19945;DHT22;10134;50.952;6.930;2023-06-10T00:56:41;22.60;85.20
19945;DHT22;10134;50.952;6.930;2023-06-10T00:59:10;22.60;85.50
19945;DHT22;10134;50.952;6.930;2023-06-10T01:01:37;22.60;85.60
19945;DHT22;10134;50.952;6.930;2023-06-10T01:04:06;22.60;85.80
19945;DHT22;10134;50.952;6.930;2023-06-10T01:12:03;22.50;86.30
19945;DHT22;10134;50.952;6.930;2023-06-10T01:14:36;22.50;87.20
19945;DHT22;10134;50.952;6.930;2023-06-10T01:17:04;22.50;86.90
19945;DHT22;10134;50.952;6.930;2023-06-10T01:19:32;22.50;86.90
19945;DHT22;10134;50.952;6.930;2023-06-10T01:22:01;22.40;87.80
19945;DHT22;10134;50.952;6.930;2023-06-10T01:24:28;22.40;87.30
19945;DHT22;10134;50.952;6.930;2023-06-10T01:27:01;22.40;87.50
19945;DHT22;10134;50.952;6.930;2023-06-10T01:29:37;22.30;88.10
19945;DHT22;10134;50.952;6.930;2023-06-10T01:32:17;22.30;88.30
19945;DHT22;10134;50.952;6.930;2023-06-10T01:34:46;22.30;88.60
19945;DHT22;10134;50.952;6.930;2023-06-10T01:37:18;22.30;89.00
19945;DHT22;10134;50.952;6.930;2023-06-10T01:39:48;22.20;89.30
19945;DHT22;10134;50.952;6.930;2023-06-10T01:42:15;22.20;89.60
19945;DHT22;10134;50.952;6.930;2023-06-10T01:44:43;22.20;90.00
19945;DHT22;10134;50.952;6.930;2023-06-10T01:47:10;22.10;90.10
19945;DHT22;10134;50.952;6.930;2023-06-10T01:49:38;22.10;90.20
19945;DHT22;10134;50.952;6.930;2023-06-10T01:52:07;22.10;90.40
19945;DHT22;10134;50.952;6.930;2023-06-10T01:54:34;22.00;90.40
19945;DHT22;10134;50.952;6.930;2023-06-10T01:57:02;22.00;90.70
19945;DHT22;10134;50.952;6.930;2023-06-10T01:59:29;22.00;90.80
19945;DHT22;10134;50.952;6.930;2023-06-10T02:01:57;22.00;91.00
19945;DHT22;10134;50.952;6.930;2023-06-10T02:04:24;21.90;91.10
19945;DHT22;10134;50.952;6.930;2023-06-10T02:06:51;21.90;91.20
19945;DHT22;10134;50.952;6.930;2023-06-10T02:09:20;21.80;91.50
19945;DHT22;10134;50.952;6.930;2023-06-10T02:11:47;21.80;91.50
19945;DHT22;10134;50.952;6.930;2023-06-10T02:14:15;21.80;91.60
19945;DHT22;10134;50.952;6.930;2023-06-10T02:16:42;21.80;91.60
19945;DHT22;10134;50.952;6.930;2023-06-10T02:19:13;21.80;91.70
19945;DHT22;10134;50.952;6.930;2023-06-10T02:21:40;21.80;92.00
19945;DHT22;10134;50.952;6.930;2023-06-10T02:24:09;21.70;92.10
19945;DHT22;10134;50.952;6.930;2023-06-10T02:26:37;21.70;92.20
19945;DHT22;10134;50.952;6.930;2023-06-10T02:29:04;21.60;92.30
19945;DHT22;10134;50.952;6.930;2023-06-10T02:31:32;21.60;92.30
19945;DHT22;10134;50.952;6.930;2023-06-10T02:34:03;21.60;92.40
19945;DHT22;10134;50.952;6.930;2023-06-10T02:36:31;21.60;92.60
19945;DHT22;10134;50.952;6.930;2023-06-10T02:38:58;21.60;92.80
19945;DHT22;10134;50.952;6.930;2023-06-10T02:41:27;21.50;92.90
19945;DHT22;10134;50.952;6.930;2023-06-10T02:43:54;21.50;93.10
19945;DHT22;10134;50.952;6.930;2023-06-10T02:46:23;21.50;93.20
19945;DHT22;10134;50.952;6.930;2023-06-10T02:48:52;21.50;93.30
19945;DHT22;10134;50.952;6.930;2023-06-10T02:51:22;21.40;93.30
19945;DHT22;10134;50.952;6.930;2023-06-10T02:53:55;21.40;93.70
19945;DHT22;10134;50.952;6.930;2023-06-10T02:56:23;21.40;93.80
19945;DHT22;10134;50.952;6.930;2023-06-10T02:58:50;21.30;94.10
19945;DHT22;10134;50.952;6.930;2023-06-10T03:01:20;21.30;94.20
19945;DHT22;10134;50.952;6.930;2023-06-10T03:03:56;21.30;94.30
19945;DHT22;10134;50.952;6.930;2023-06-10T03:06:23;21.30;94.50
19945;DHT22;10134;50.952;6.930;2023-06-10T03:08:54;21.30;94.70
19945;DHT22;10134;50.952;6.930;2023-06-10T03:11:22;21.20;94.80
19945;DHT22;10134;50.952;6.930;2023-06-10T03:13:50;21.20;95.10
19945;DHT22;10134;50.952;6.930;2023-06-10T03:16:19;21.10;95.30
19945;DHT22;10134;50.952;6.930;2023-06-10T03:18:46;21.10;95.40
19945;DHT22;10134;50.952;6.930;2023-06-10T03:21:14;21.10;95.50
19945;DHT22;10134;50.952;6.930;2023-06-10T03:23:42;21.10;95.90
19945;DHT22;10134;50.952;6.930;2023-06-10T03:26:09;21.10;95.90
19945;DHT22;10134;50.952;6.930;2023-06-10T03:28:40;21.10;96.10
19945;DHT22;10134;50.952;6.930;2023-06-10T03:31:08;21.00;96.50
19945;DHT22;10134;50.952;6.930;2023-06-10T03:33:36;20.90;96.70
19945;DHT22;10134;50.952;6.930;2023-06-10T03:36:04;20.90;96.90
19945;DHT22;10134;50.952;6.930;2023-06-10T03:38:33;20.90;97.10
19945;DHT22;10134;50.952;6.930;2023-06-10T03:41:00;20.90;97.30
19945;DHT22;10134;50.952;6.930;2023-06-10T03:43:28;20.80;97.40
19945;DHT22;10134;50.952;6.930;2023-06-10T03:45:56;20.80;97.80
19945;DHT22;10134;50.952;6.930;2023-06-10T03:48:23;20.80;97.90
19945;DHT22;10134;50.952;6.930;2023-06-10T03:50:52;20.80;98.20
19945;DHT22;10134;50.952;6.930;2023-06-10T03:53:21;20.80;98.50
19945;DHT22;10134;50.952;6.930;2023-06-10T03:55:49;20.70;98.90
19945;DHT22;10134;50.952;6.930;2023-06-10T03:58:19;20.70;99.00
19945;DHT22;10134;50.952;6.930;2023-06-10T04:00:46;20.60;99.20
19945;DHT22;10134;50.952;6.930;2023-06-10T04:03:14;20.60;99.30
19945;DHT22;10134;50.952;6.930;2023-06-10T04:05:45;20.70;99.50
19945;DHT22;10134;50.952;6.930;2023-06-10T04:08:13;20.70;99.60
19945;DHT22;10134;50.952;6.930;2023-06-10T04:10:40;20.70;99.90
19945;DHT22;10134;50.952;6.930;2023-06-10T04:13:08;20.70;99.90
19945;DHT22;10134;50.952;6.930;2023-06-10T04:15:41;20.60;99.90
19945;DHT22;10134;50.952;6.930;2023-06-10T04:18:13;20.60;99.90
19945;DHT22;10134;50.952;6.930;2023-06-10T04:20:41;20.60;99.90
19945;DHT22;10134;50.952;6.930;2023-06-10T04:23:08;20.60;99.90
19945;DHT22;10134;50.952;6.930;2023-06-10T04:25:37;20.60;99.90
19945;DHT22;10134;50.952;6.930;2023-06-10T04:28:04;20.60;99.90
19945;DHT22;10134;50.952;6.930;2023-06-10T04:30:32;20.70;99.90
19945;DHT22;10134;50.952;6.930;2023-06-10T04:33:00;20.70;99.90
19945;DHT22;10134;50.952;6.930;2023-06-10T04:35:28;20.70;99.90
19945;DHT22;10134;50.952;6.930;2023-06-10T04:37:59;20.70;99.90
19945;DHT22;10134;50.952;6.930;2023-06-10T04:40:26;20.80;99.90
19945;DHT22;10134;50.952;6.930;2023-06-10T04:42:54;20.80;99.90
19945;DHT22;10134;50.952;6.930;2023-06-10T04:45:21;20.80;99.90
19945;DHT22;10134;50.952;6.930;2023-06-10T04:47:50;20.90;99.90
19945;DHT22;10134;50.952;6.930;2023-06-10T04:50:17;20.90;99.90
19945;DHT22;10134;50.952;6.930;2023-06-10T04:52:45;20.90;99.90
19945;DHT22;10134;50.952;6.930;2023-06-10T04:55:12;20.90;99.90
19945;DHT22;10134;50.952;6.930;2023-06-10T04:57:40;21.00;99.90
19945;DHT22;10134;50.952;6.930;2023-06-10T05:00:07;21.00;99.90
19945;DHT22;10134;50.952;6.930;2023-06-10T05:02:35;21.00;99.90
19945;DHT22;10134;50.952;6.930;2023-06-10T05:05:03;21.10;99.90
19945;DHT22;10134;50.952;6.930;2023-06-10T05:07:30;21.10;99.90
19945;DHT22;10134;50.952;6.930;2023-06-10T05:09:58;21.20;99.90
19945;DHT22;10134;50.952;6.930;2023-06-10T05:12:26;21.20;99.90
19945;DHT22;10134;50.952;6.930;2023-06-10T05:14:53;21.20;99.90
19945;DHT22;10134;50.952;6.930;2023-06-10T05:17:20;21.30;99.90
19945;DHT22;10134;50.952;6.930;2023-06-10T05:19:47;21.40;99.90
19945;DHT22;10134;50.952;6.930;2023-06-10T05:22:15;21.30;99.90
19945;DHT22;10134;50.952;6.930;2023-06-10T05:24:44;21.40;99.90
19945;DHT22;10134;50.952;6.930;2023-06-10T05:27:11;21.50;99.90
19945;DHT22;10134;50.952;6.930;2023-06-10T05:29:38;21.50;99.90
19945;DHT22;10134;50.952;6.930;2023-06-10T05:32:06;21.60;99.90
19945;DHT22;10134;50.952;6.930;2023-06-10T05:34:34;21.60;99.90
19945;DHT22;10134;50.952;6.930;2023-06-10T05:37:01;21.70;99.90
19945;DHT22;10134;50.952;6.930;2023-06-10T05:39:28;21.80;99.90
19945;DHT22;10134;50.952;6.930;2023-06-10T05:41:56;21.90;99.70
19945;DHT22;10134;50.952;6.930;2023-06-10T05:44:25;21.90;99.30
19945;DHT22;10134;50.952;6.930;2023-06-10T05:46:53;22.00;99.20
19945;DHT22;10134;50.952;6.930;2023-06-10T05:49:20;22.10;99.10
19945;DHT22;10134;50.952;6.930;2023-06-10T05:51:47;22.10;98.90
19945;DHT22;10134;50.952;6.930;2023-06-10T05:54:14;22.20;98.70
19945;DHT22;10134;50.952;6.930;2023-06-10T05:56:42;22.30;98.50
19945;DHT22;10134;50.952;6.930;2023-06-10T05:59:09;22.30;98.30
19945;DHT22;10134;50.952;6.930;2023-06-10T06:01:36;22.40;98.10
19945;DHT22;10134;50.952;6.930;2023-06-10T06:04:04;22.40;97.90
19945;DHT22;10134;50.952;6.930;2023-06-10T06:06:31;22.50;97.90
19945;DHT22;10134;50.952;6.930;2023-06-10T06:08:58;22.50;97.80
19945;DHT22;10134;50.952;6.930;2023-06-10T06:11:25;22.60;97.70
19945;DHT22;10134;50.952;6.930;2023-06-10T06:13:53;22.70;96.80
19945;DHT22;10134;50.952;6.930;2023-06-10T06:16:20;22.70;96.20
19945;DHT22;10134;50.952;6.930;2023-06-10T06:18:48;22.80;95.60
19945;DHT22;10134;50.952;6.930;2023-06-10T06:21:15;22.80;95.10
19945;DHT22;10134;50.952;6.930;2023-06-10T06:23:42;22.90;94.60
19945;DHT22;10134;50.952;6.930;2023-06-10T06:26:10;22.90;94.30
19945;DHT22;10134;50.952;6.930;2023-06-10T06:28:37;23.00;94.30
19945;DHT22;10134;50.952;6.930;2023-06-10T06:31:05;23.00;93.90
19945;DHT22;10134;50.952;6.930;2023-06-10T06:33:35;23.00;93.50
19945;DHT22;10134;50.952;6.930;2023-06-10T06:36:02;23.10;93.10
19945;DHT22;10134;50.952;6.930;2023-06-10T06:38:30;23.10;92.90
19945;DHT22;10134;50.952;6.930;2023-06-10T06:40:57;23.20;92.80
19945;DHT22;10134;50.952;6.930;2023-06-10T06:43:30;23.20;92.70
19945;DHT22;10134;50.952;6.930;2023-06-10T06:46:09;23.30;92.40
19945;DHT22;10134;50.952;6.930;2023-06-10T06:48:36;23.30;92.10
19945;DHT22;10134;50.952;6.930;2023-06-10T06:51:04;23.40;92.10
19945;DHT22;10134;50.952;6.930;2023-06-10T06:53:31;23.40;92.00
19945;DHT22;10134;50.952;6.930;2023-06-10T06:56:00;23.50;91.80
19945;DHT22;10134;50.952;6.930;2023-06-10T06:58:28;23.50;91.50
19945;DHT22;10134;50.952;6.930;2023-06-10T07:00:55;23.60;91.30
19945;DHT22;10134;50.952;6.930;2023-06-10T07:03:23;23.60;91.00
19945;DHT22;10134;50.952;6.930;2023-06-10T07:05:51;23.70;91.00
19945;DHT22;10134;50.952;6.930;2023-06-10T07:08:18;23.70;91.00
19945;DHT22;10134;50.952;6.930;2023-06-10T07:10:45;23.80;91.00
19945;DHT22;10134;50.952;6.930;2023-06-10T07:13:13;23.80;91.00
19945;DHT22;10134;50.952;6.930;2023-06-10T07:15:41;23.90;91.00
19945;DHT22;10134;50.952;6.930;2023-06-10T07:18:08;24.00;90.80
19945;DHT22;10134;50.952;6.930;2023-06-10T07:20:36;24.00;90.40
19945;DHT22;10134;50.952;6.930;2023-06-10T07:23:03;24.10;90.30
19945;DHT22;10134;50.952;6.930;2023-06-10T07:25:30;24.10;90.00
19945;DHT22;10134;50.952;6.930;2023-06-10T07:27:57;24.10;89.80
19945;DHT22;10134;50.952;6.930;2023-06-10T07:30:25;24.20;89.90
19945;DHT22;10134;50.952;6.930;2023-06-10T07:32:52;24.30;89.80
19945;DHT22;10134;50.952;6.930;2023-06-10T07:35:19;24.30;89.80
19945;DHT22;10134;50.952;6.930;2023-06-10T07:37:47;24.40;89.60
19945;DHT22;10134;50.952;6.930;2023-06-10T07:40:14;24.40;89.30
19945;DHT22;10134;50.952;6.930;2023-06-10T07:42:42;24.50;88.90
19945;DHT22;10134;50.952;6.930;2023-06-10T07:45:10;24.50;88.70
19945;DHT22;10134;50.952;6.930;2023-06-10T07:47:38;24.60;88.40
19945;DHT22;10134;50.952;6.930;2023-06-10T07:50:06;24.60;88.40
19945;DHT22;10134;50.952;6.930;2023-06-10T07:52:33;24.70;88.50
19945;DHT22;10134;50.952;6.930;2023-06-10T07:55:00;24.80;88.00
19945;DHT22;10134;50.952;6.930;2023-06-10T07:57:28;24.80;87.80
19945;DHT22;10134;50.952;6.930;2023-06-10T07:59:55;24.90;87.70
19945;DHT22;10134;50.952;6.930;2023-06-10T08:02:25;25.00;87.00
19945;DHT22;10134;50.952;6.930;2023-06-10T08:04:52;25.00;86.90
19945;DHT22;10134;50.952;6.930;2023-06-10T08:07:23;25.10;86.40
19945;DHT22;10134;50.952;6.930;2023-06-10T08:09:51;25.10;86.20
19945;DHT22;10134;50.952;6.930;2023-06-10T08:12:18;25.20;86.40
19945;DHT22;10134;50.952;6.930;2023-06-10T08:14:45;25.30;86.30
19945;DHT22;10134;50.952;6.930;2023-06-10T08:17:18;25.30;86.60
19945;DHT22;10134;50.952;6.930;2023-06-10T08:19:46;25.40;86.20
19945;DHT22;10134;50.952;6.930;2023-06-10T08:22:13;25.50;86.10
19945;DHT22;10134;50.952;6.930;2023-06-10T08:24:41;25.50;85.70
19945;DHT22;10134;50.952;6.930;2023-06-10T08:27:09;25.60;85.40
19945;DHT22;10134;50.952;6.930;2023-06-10T08:29:37;25.60;85.20
19945;DHT22;10134;50.952;6.930;2023-06-10T08:32:04;25.70;84.90
19945;DHT22;10134;50.952;6.930;2023-06-10T08:34:34;25.80;84.80
19945;DHT22;10134;50.952;6.930;2023-06-10T08:37:03;25.80;84.60
19945;DHT22;10134;50.952;6.930;2023-06-10T08:39:30;25.80;84.20
19945;DHT22;10134;50.952;6.930;2023-06-10T08:42:21;25.90;83.90
19945;DHT22;10134;50.952;6.930;2023-06-10T08:44:53;26.00;83.70
19945;DHT22;10134;50.952;6.930;2023-06-10T08:47:24;26.10;84.00
19945;DHT22;10134;50.952;6.930;2023-06-10T08:49:52;26.10;84.20
19945;DHT22;10134;50.952;6.930;2023-06-10T08:52:20;26.10;84.10
19945;DHT22;10134;50.952;6.930;2023-06-10T08:54:59;26.20;83.50
19945;DHT22;10134;50.952;6.930;2023-06-10T08:57:27;26.20;83.40
19945;DHT22;10134;50.952;6.930;2023-06-10T08:59:56;26.30;83.40
19945;DHT22;10134;50.952;6.930;2023-06-10T09:02:24;26.40;83.20
19945;DHT22;10134;50.952;6.930;2023-06-10T09:04:52;26.40;82.80
19945;DHT22;10134;50.952;6.930;2023-06-10T09:07:20;26.40;82.20
19945;DHT22;10134;50.952;6.930;2023-06-10T09:09:49;26.50;82.30
19945;DHT22;10134;50.952;6.930;2023-06-10T09:12:16;26.50;82.90
19945;DHT22;10134;50.952;6.930;2023-06-10T09:14:44;26.60;82.50
19945;DHT22;10134;50.952;6.930;2023-06-10T09:17:11;26.70;82.50
19945;DHT22;10134;50.952;6.930;2023-06-10T09:19:40;26.80;82.00
19945;DHT22;10134;50.952;6.930;2023-06-10T09:22:08;26.80;81.90
19945;DHT22;10134;50.952;6.930;2023-06-10T09:24:36;26.90;81.50
19945;DHT22;10134;50.952;6.930;2023-06-10T09:27:05;26.90;81.60
19945;DHT22;10134;50.952;6.930;2023-06-10T09:29:53;27.00;81.80
19945;DHT22;10134;50.952;6.930;2023-06-10T09:32:21;27.10;81.50
19945;DHT22;10134;50.952;6.930;2023-06-10T09:34:49;27.10;80.70
19945;DHT22;10134;50.952;6.930;2023-06-10T09:37:25;27.20;80.20
19945;DHT22;10134;50.952;6.930;2023-06-10T09:42:33;27.30;80.40
19945;DHT22;10134;50.952;6.930;2023-06-10T09:45:05;27.40;80.00
19945;DHT22;10134;50.952;6.930;2023-06-10T09:47:32;27.50;79.60
19945;DHT22;10134;50.952;6.930;2023-06-10T09:50:00;27.50;79.10
19945;DHT22;10134;50.952;6.930;2023-06-10T09:52:28;27.60;78.70
19945;DHT22;10134;50.952;6.930;2023-06-10T09:55:01;27.60;79.80
19945;DHT22;10134;50.952;6.930;2023-06-10T09:57:32;27.70;79.10
19945;DHT22;10134;50.952;6.930;2023-06-10T10:00:12;27.70;78.40
19945;DHT22;10134;50.952;6.930;2023-06-10T10:02:51;27.80;78.40
19945;DHT22;10134;50.952;6.930;2023-06-10T10:05:20;27.90;78.10
19945;DHT22;10134;50.952;6.930;2023-06-10T10:07:49;27.90;78.10
19945;DHT22;10134;50.952;6.930;2023-06-10T10:10:18;28.00;78.00
19945;DHT22;10134;50.952;6.930;2023-06-10T10:12:47;28.00;77.60
19945;DHT22;10134;50.952;6.930;2023-06-10T10:15:17;28.10;77.40
19945;DHT22;10134;50.952;6.930;2023-06-10T10:17:52;28.20;77.10
19945;DHT22;10134;50.952;6.930;2023-06-10T10:20:24;28.20;76.80
19945;DHT22;10134;50.952;6.930;2023-06-10T10:22:56;28.30;76.70
19945;DHT22;10134;50.952;6.930;2023-06-10T10:25:28;28.30;76.80
19945;DHT22;10134;50.952;6.930;2023-06-10T10:28:12;28.40;76.70
19945;DHT22;10134;50.952;6.930;2023-06-10T10:30:42;28.50;76.10
19945;DHT22;10134;50.952;6.930;2023-06-10T10:33:17;28.50;76.00
19945;DHT22;10134;50.952;6.930;2023-06-10T10:35:46;28.60;75.70
19945;DHT22;10134;50.952;6.930;2023-06-10T10:38:14;28.60;75.70
19945;DHT22;10134;50.952;6.930;2023-06-10T10:40:44;28.70;75.00
19945;DHT22;10134;50.952;6.930;2023-06-10T10:43:12;28.80;74.70
19945;DHT22;10134;50.952;6.930;2023-06-10T10:45:39;28.80;74.30
19945;DHT22;10134;50.952;6.930;2023-06-10T10:48:10;28.90;73.90
19945;DHT22;10134;50.952;6.930;2023-06-10T10:50:39;28.90;73.80
19945;DHT22;10134;50.952;6.930;2023-06-10T10:53:07;29.00;73.10
19945;DHT22;10134;50.952;6.930;2023-06-10T10:55:35;29.10;72.70
19945;DHT22;10134;50.952;6.930;2023-06-10T10:58:06;29.10;72.20
19945;DHT22;10134;50.952;6.930;2023-06-10T11:00:44;29.20;71.90
19945;DHT22;10134;50.952;6.930;2023-06-10T11:03:14;29.40;72.00
19945;DHT22;10134;50.952;6.930;2023-06-10T11:05:45;29.50;71.40
19945;DHT22;10134;50.952;6.930;2023-06-10T11:09:02;29.60;71.20
19945;DHT22;10134;50.952;6.930;2023-06-10T11:11:24;29.70;69.50
19945;DHT22;10134;50.952;6.930;2023-06-10T11:14:06;29.80;67.20
19945;DHT22;10134;50.952;6.930;2023-06-10T11:16:42;29.90;66.20
19945;DHT22;10134;50.952;6.930;2023-06-10T11:19:10;30.00;65.50
19945;DHT22;10134;50.952;6.930;2023-06-10T11:21:57;30.10;64.20
19945;DHT22;10134;50.952;6.930;2023-06-10T11:24:26;30.20;63.80
19945;DHT22;10134;50.952;6.930;2023-06-10T11:26:53;30.30;63.40
19945;DHT22;10134;50.952;6.930;2023-06-10T11:29:21;30.40;63.30
19945;DHT22;10134;50.952;6.930;2023-06-10T11:31:51;30.40;62.40
19945;DHT22;10134;50.952;6.930;2023-06-10T11:34:23;30.40;61.50
19945;DHT22;10134;50.952;6.930;2023-06-10T11:36:51;30.40;61.50
19945;DHT22;10134;50.952;6.930;2023-06-10T11:39:20;30.40;62.10
19945;DHT22;10134;50.952;6.930;2023-06-10T11:41:48;30.40;61.90
19945;DHT22;10134;50.952;6.930;2023-06-10T11:44:17;30.50;61.80
19945;DHT22;10134;50.952;6.930;2023-06-10T11:46:48;30.40;61.40
19945;DHT22;10134;50.952;6.930;2023-06-10T11:49:16;30.40;61.50
19945;DHT22;10134;50.952;6.930;2023-06-10T11:51:43;30.30;60.20
19945;DHT22;10134;50.952;6.930;2023-06-10T11:54:17;30.30;60.40
19945;DHT22;10134;50.952;6.930;2023-06-10T11:56:45;30.30;60.30
19945;DHT22;10134;50.952;6.930;2023-06-10T11:59:13;30.30;60.30
19945;DHT22;10134;50.952;6.930;2023-06-10T12:01:45;30.30;60.10
19945;DHT22;10134;50.952;6.930;2023-06-10T12:04:13;30.30;59.50
19945;DHT22;10134;50.952;6.930;2023-06-10T12:06:46;30.30;59.70
19945;DHT22;10134;50.952;6.930;2023-06-10T12:09:22;30.20;59.80
19945;DHT22;10134;50.952;6.930;2023-06-10T12:11:59;30.20;59.70
19945;DHT22;10134;50.952;6.930;2023-06-10T12:14:50;30.20;59.90
19945;DHT22;10134;50.952;6.930;2023-06-10T12:19:59;30.30;60.90
19945;DHT22;10134;50.952;6.930;2023-06-10T12:22:26;30.40;61.30
19945;DHT22;10134;50.952;6.930;2023-06-10T12:25:02;30.40;61.20
19945;DHT22;10134;50.952;6.930;2023-06-10T12:27:31;30.20;61.40
19945;DHT22;10134;50.952;6.930;2023-06-10T12:29:59;30.10;61.70
19945;DHT22;10134;50.952;6.930;2023-06-10T12:32:39;30.10;62.50
19945;DHT22;10134;50.952;6.930;2023-06-10T12:35:09;30.20;62.50
19945;DHT22;10134;50.952;6.930;2023-06-10T12:37:41;30.30;61.40
19945;DHT22;10134;50.952;6.930;2023-06-10T12:40:10;30.30;61.50
19945;DHT22;10134;50.952;6.930;2023-06-10T12:42:39;30.40;61.40
19945;DHT22;10134;50.952;6.930;2023-06-10T12:45:06;30.50;61.20
19945;DHT22;10134;50.952;6.930;2023-06-10T12:47:37;30.50;59.90
19945;DHT22;10134;50.952;6.930;2023-06-10T12:50:09;30.40;60.20
19945;DHT22;10134;50.952;6.930;2023-06-10T12:52:38;30.40;60.80
19945;DHT22;10134;50.952;6.930;2023-06-10T12:55:06;30.30;60.60
19945;DHT22;10134;50.952;6.930;2023-06-10T12:57:34;30.30;60.10
19945;DHT22;10134;50.952;6.930;2023-06-10T13:00:02;30.20;60.00
19945;DHT22;10134;50.952;6.930;2023-06-10T13:02:32;30.20;59.80
19945;DHT22;10134;50.952;6.930;2023-06-10T13:04:59;30.40;59.10
19945;DHT22;10134;50.952;6.930;2023-06-10T13:07:27;30.50;59.00
19945;DHT22;10134;50.952;6.930;2023-06-10T13:09:54;30.70;59.40
19945;DHT22;10134;50.952;6.930;2023-06-10T13:12:22;30.80;58.80
19945;DHT22;10134;50.952;6.930;2023-06-10T13:15:04;31.00;58.40
19945;DHT22;10134;50.952;6.930;2023-06-10T13:17:32;31.10;58.70
19945;DHT22;10134;50.952;6.930;2023-06-10T13:20:03;31.20;58.80
19945;DHT22;10134;50.952;6.930;2023-06-10T13:22:34;31.30;58.60
19945;DHT22;10134;50.952;6.930;2023-06-10T13:25:04;31.30;58.50
19945;DHT22;10134;50.952;6.930;2023-06-10T13:27:32;31.40;57.30
19945;DHT22;10134;50.952;6.930;2023-06-10T13:29:59;31.60;56.90
19945;DHT22;10134;50.952;6.930;2023-06-10T13:32:27;31.90;56.30
19945;DHT22;10134;50.952;6.930;2023-06-10T13:34:54;32.00;53.60
19945;DHT22;10134;50.952;6.930;2023-06-10T13:37:22;32.00;53.80
19945;DHT22;10134;50.952;6.930;2023-06-10T13:39:49;31.90;53.80
19945;DHT22;10134;50.952;6.930;2023-06-10T13:42:18;31.80;54.80
19945;DHT22;10134;50.952;6.930;2023-06-10T13:44:46;31.60;55.10
19945;DHT22;10134;50.952;6.930;2023-06-10T13:47:14;31.40;55.30
19945;DHT22;10134;50.952;6.930;2023-06-10T13:49:42;31.40;55.40
19945;DHT22;10134;50.952;6.930;2023-06-10T13:52:09;31.50;56.10
19945;DHT22;10134;50.952;6.930;2023-06-10T13:54:36;31.40;56.00
19945;DHT22;10134;50.952;6.930;2023-06-10T13:57:04;31.30;55.40
19945;DHT22;10134;50.952;6.930;2023-06-10T13:59:31;31.10;54.40
19945;DHT22;10134;50.952;6.930;2023-06-10T14:01:59;30.90;54.50
19945;DHT22;10134;50.952;6.930;2023-06-10T14:04:27;30.80;54.60
19945;DHT22;10134;50.952;6.930;2023-06-10T14:06:55;30.70;55.50
19945;DHT22;10134;50.952;6.930;2023-06-10T14:09:22;30.70;55.60
19945;DHT22;10134;50.952;6.930;2023-06-10T14:11:50;30.80;55.50
19945;DHT22;10134;50.952;6.930;2023-06-10T14:14:17;31.00;55.20
19945;DHT22;10134;50.952;6.930;2023-06-10T14:16:45;31.10;55.30
19945;DHT22;10134;50.952;6.930;2023-06-10T14:19:13;31.30;55.80
19945;DHT22;10134;50.952;6.930;2023-06-10T14:21:41;31.50;54.10
19945;DHT22;10134;50.952;6.930;2023-06-10T14:24:09;31.60;54.00
19945;DHT22;10134;50.952;6.930;2023-06-10T14:26:36;31.70;53.30
19945;DHT22;10134;50.952;6.930;2023-06-10T14:29:03;31.80;53.60
19945;DHT22;10134;50.952;6.930;2023-06-10T14:31:31;32.10;53.80
19945;DHT22;10134;50.952;6.930;2023-06-10T14:33:58;32.20;53.10
19945;DHT22;10134;50.952;6.930;2023-06-10T14:36:25;32.40;52.90
19945;DHT22;10134;50.952;6.930;2023-06-10T14:38:53;32.60;52.70
19945;DHT22;10134;50.952;6.930;2023-06-10T14:41:21;32.80;52.60
19945;DHT22;10134;50.952;6.930;2023-06-10T14:43:49;32.90;52.40
19945;DHT22;10134;50.952;6.930;2023-06-10T14:46:16;33.00;52.10
19945;DHT22;10134;50.952;6.930;2023-06-10T14:48:44;33.00;51.90
19945;DHT22;10134;50.952;6.930;2023-06-10T14:51:11;33.10;51.90
19945;DHT22;10134;50.952;6.930;2023-06-10T14:53:38;33.20;51.30
19945;DHT22;10134;50.952;6.930;2023-06-10T14:56:06;33.20;51.30
19945;DHT22;10134;50.952;6.930;2023-06-10T14:58:34;33.30;51.70
19945;DHT22;10134;50.952;6.930;2023-06-10T15:01:02;33.40;52.00
19945;DHT22;10134;50.952;6.930;2023-06-10T15:03:30;33.50;51.50
19945;DHT22;10134;50.952;6.930;2023-06-10T15:05:57;33.60;50.90
19945;DHT22;10134;50.952;6.930;2023-06-10T15:08:25;33.90;50.70
19945;DHT22;10134;50.952;6.930;2023-06-10T15:10:52;33.90;50.10
19945;DHT22;10134;50.952;6.930;2023-06-10T15:13:19;33.70;50.70
19945;DHT22;10134;50.952;6.930;2023-06-10T15:15:46;33.40;50.80
19945;DHT22;10134;50.952;6.930;2023-06-10T15:18:14;33.10;51.80
19945;DHT22;10134;50.952;6.930;2023-06-10T15:20:41;33.40;52.20
19945;DHT22;10134;50.952;6.930;2023-06-10T15:23:08;33.70;52.10
19945;DHT22;10134;50.952;6.930;2023-06-10T15:25:36;33.90;51.90
19945;DHT22;10134;50.952;6.930;2023-06-10T15:28:05;33.90;51.50
19945;DHT22;10134;50.952;6.930;2023-06-10T15:30:32;34.40;51.10
19945;DHT22;10134;50.952;6.930;2023-06-10T15:33:00;34.90;50.40
19945;DHT22;10134;50.952;6.930;2023-06-10T15:35:27;35.20;50.20
19945;DHT22;10134;50.952;6.930;2023-06-10T15:37:54;35.90;49.50
19945;DHT22;10134;50.952;6.930;2023-06-10T15:40:22;36.90;48.60
19945;DHT22;10134;50.952;6.930;2023-06-10T15:42:49;37.90;47.60
19945;DHT22;10134;50.952;6.930;2023-06-10T15:45:19;38.50;47.20
19945;DHT22;10134;50.952;6.930;2023-06-10T15:47:47;38.40;46.20
19945;DHT22;10134;50.952;6.930;2023-06-10T15:50:14;38.00;45.80
19945;DHT22;10134;50.952;6.930;2023-06-10T15:52:41;37.50;45.40